sensor_id;sensor_type;location;lat;lon;timestamp;P1;durP1;ratioP1;P2;durP2;ratioP2
12493;SDS011;8260;51.422;6.786;2023-05-13T00:00:34;14.73;;;13.25;;
12493;SDS011;8260;51.422;6.786;2023-05-13T00:03:03;14.80;;;13.30;;
12493;SDS011;8260;51.422;6.786;2023-05-13T00:05:32;17.80;;;15.27;;
12493;SDS011;8260;51.422;6.786;2023-05-13T00:08:02;16.77;;;15.07;;
12493;SDS011;8260;51.422;6.786;2023-05-13T00:10:32;15.13;;;13.50;;
12493;SDS011;8260;51.422;6.786;2023-05-13T00:13:01;15.20;;;13.75;;
12493;SDS011;8260;51.422;6.786;2023-05-13T00:15:29;17.27;;;15.52;;
12493;SDS011;8260;51.422;6.786;2023-05-13T00:17:58;15.90;;;14.27;;
12493;SDS011;8260;51.422;6.786;2023-05-13T00:20:26;19.17;;;14.55;;
12493;SDS011;8260;51.422;6.786;2023-05-13T00:22:55;15.52;;;13.93;;
12493;SDS011;8260;51.422;6.786;2023-05-13T00:25:25;17.05;;;15.10;;
12493;SDS011;8260;51.422;6.786;2023-05-13T00:27:54;16.90;;;14.13;;
12493;SDS011;8260;51.422;6.786;2023-05-13T00:30:25;15.10;;;13.60;;
12493;SDS011;8260;51.422;6.786;2023-05-13T00:32:54;15.60;;;13.93;;
12493;SDS011;8260;51.422;6.786;2023-05-13T00:35:25;17.25;;;14.88;;
12493;SDS011;8260;51.422;6.786;2023-05-13T00:37:54;15.93;;;14.27;;
12493;SDS011;8260;51.422;6.786;2023-05-13T00:40:23;16.13;;;14.55;;
12493;SDS011;8260;51.422;6.786;2023-05-13T00:42:53;18.00;;;15.00;;
12493;SDS011;8260;51.422;6.786;2023-05-13T00:45:22;16.98;;;15.48;;
12493;SDS011;8260;51.422;6.786;2023-05-13T00:47:50;16.52;;;14.82;;
12493;SDS011;8260;51.422;6.786;2023-05-13T00:50:19;15.45;;;13.90;;
12493;SDS011;8260;51.422;6.786;2023-05-13T00:52:49;15.85;;;14.20;;
12493;SDS011;8260;51.422;6.786;2023-05-13T00:55:17;16.20;;;14.73;;
12493;SDS011;8260;51.422;6.786;2023-05-13T00:57:46;16.38;;;14.88;;
12493;SDS011;8260;51.422;6.786;2023-05-13T01:00:16;17.17;;;14.93;;
12493;SDS011;8260;51.422;6.786;2023-05-13T01:02:48;16.33;;;14.73;;
12493;SDS011;8260;51.422;6.786;2023-05-13T01:05:19;15.52;;;14.05;;
12493;SDS011;8260;51.422;6.786;2023-05-13T01:07:52;16.00;;;14.30;;
12493;SDS011;8260;51.422;6.786;2023-05-13T01:10:24;16.35;;;14.85;;
12493;SDS011;8260;51.422;6.786;2023-05-13T01:12:55;16.13;;;14.00;;
12493;SDS011;8260;51.422;6.786;2023-05-13T01:15:27;16.00;;;14.13;;
12493;SDS011;8260;51.422;6.786;2023-05-13T01:17:56;15.98;;;14.43;;
12493;SDS011;8260;51.422;6.786;2023-05-13T01:20:27;16.02;;;14.27;;
12493;SDS011;8260;51.422;6.786;2023-05-13T01:22:59;15.55;;;14.05;;
12493;SDS011;8260;51.422;6.786;2023-05-13T01:25:29;16.20;;;14.63;;
12493;SDS011;8260;51.422;6.786;2023-05-13T01:27:57;15.95;;;14.30;;
12493;SDS011;8260;51.422;6.786;2023-05-13T01:30:26;16.55;;;14.88;;
12493;SDS011;8260;51.422;6.786;2023-05-13T01:32:55;15.98;;;14.48;;
12493;SDS011;8260;51.422;6.786;2023-05-13T01:35:27;14.95;;;13.45;;
12493;SDS011;8260;51.422;6.786;2023-05-13T01:37:56;16.00;;;14.40;;
12493;SDS011;8260;51.422;6.786;2023-05-13T01:40:26;15.20;;;13.70;;
12493;SDS011;8260;51.422;6.786;2023-05-13T01:42:58;16.30;;;14.70;;
12493;SDS011;8260;51.422;6.786;2023-05-13T01:45:27;15.00;;;13.70;;
12493;SDS011;8260;51.422;6.786;2023-05-13T01:47:56;16.85;;;15.15;;
12493;SDS011;8260;51.422;6.786;2023-05-13T01:50:24;17.45;;;15.82;;
12493;SDS011;8260;51.422;6.786;2023-05-13T01:52:53;16.02;;;14.52;;
12493;SDS011;8260;51.422;6.786;2023-05-13T01:55:22;16.92;;;15.27;;
12493;SDS011;8260;51.422;6.786;2023-05-13T01:57:52;18.98;;;14.13;;
12493;SDS011;8260;51.422;6.786;2023-05-13T02:00:21;16.00;;;14.38;;
12493;SDS011;8260;51.422;6.786;2023-05-13T02:02:49;15.35;;;13.85;;
12493;SDS011;8260;51.422;6.786;2023-05-13T02:05:18;16.50;;;14.80;;
12493;SDS011;8260;51.422;6.786;2023-05-13T02:07:46;16.05;;;14.55;;
12493;SDS011;8260;51.422;6.786;2023-05-13T02:10:15;16.27;;;14.73;;
12493;SDS011;8260;51.422;6.786;2023-05-13T02:12:43;17.88;;;15.73;;
12493;SDS011;8260;51.422;6.786;2023-05-13T02:15:13;15.80;;;14.27;;
12493;SDS011;8260;51.422;6.786;2023-05-13T02:17:42;16.55;;;14.75;;
12493;SDS011;8260;51.422;6.786;2023-05-13T02:20:11;16.70;;;14.90;;
12493;SDS011;8260;51.422;6.786;2023-05-13T02:22:40;17.50;;;15.65;;
12493;SDS011;8260;51.422;6.786;2023-05-13T02:25:08;17.10;;;15.30;;
12493;SDS011;8260;51.422;6.786;2023-05-13T02:27:37;17.67;;;15.73;;
12493;SDS011;8260;51.422;6.786;2023-05-13T02:30:06;16.85;;;15.15;;
12493;SDS011;8260;51.422;6.786;2023-05-13T02:32:36;16.17;;;14.40;;
12493;SDS011;8260;51.422;6.786;2023-05-13T02:35:08;15.73;;;14.18;;
12493;SDS011;8260;51.422;6.786;2023-05-13T02:37:37;18.33;;;15.52;;
12493;SDS011;8260;51.422;6.786;2023-05-13T02:40:05;16.85;;;14.75;;
12493;SDS011;8260;51.422;6.786;2023-05-13T02:42:34;16.40;;;14.88;;
12493;SDS011;8260;51.422;6.786;2023-05-13T02:45:03;15.38;;;13.70;;
12493;SDS011;8260;51.422;6.786;2023-05-13T02:47:31;16.73;;;15.13;;
12493;SDS011;8260;51.422;6.786;2023-05-13T02:50:02;16.13;;;14.52;;
12493;SDS011;8260;51.422;6.786;2023-05-13T02:52:31;16.05;;;14.55;;
12493;SDS011;8260;51.422;6.786;2023-05-13T02:55:01;17.15;;;15.45;;
12493;SDS011;8260;51.422;6.786;2023-05-13T02:57:29;15.98;;;14.43;;
12493;SDS011;8260;51.422;6.786;2023-05-13T02:59:58;17.58;;;15.27;;
12493;SDS011;8260;51.422;6.786;2023-05-13T03:02:26;16.33;;;14.63;;
12493;SDS011;8260;51.422;6.786;2023-05-13T03:04:56;16.45;;;14.75;;
12493;SDS011;8260;51.422;6.786;2023-05-13T03:07:25;16.50;;;14.27;;
12493;SDS011;8260;51.422;6.786;2023-05-13T03:09:54;19.02;;;15.55;;
12493;SDS011;8260;51.422;6.786;2023-05-13T03:12:22;16.35;;;14.65;;
12493;SDS011;8260;51.422;6.786;2023-05-13T03:14:51;16.42;;;14.63;;
12493;SDS011;8260;51.422;6.786;2023-05-13T03:17:19;14.95;;;13.63;;
12493;SDS011;8260;51.422;6.786;2023-05-13T03:19:48;15.43;;;13.93;;
12493;SDS011;8260;51.422;6.786;2023-05-13T03:22:16;16.80;;;15.13;;
12493;SDS011;8260;51.422;6.786;2023-05-13T03:24:46;15.77;;;14.27;;
12493;SDS011;8260;51.422;6.786;2023-05-13T03:27:15;15.82;;;14.43;;
12493;SDS011;8260;51.422;6.786;2023-05-13T03:29:43;18.00;;;14.73;;
12493;SDS011;8260;51.422;6.786;2023-05-13T03:32:12;15.98;;;14.43;;
12493;SDS011;8260;51.422;6.786;2023-05-13T03:34:40;17.30;;;15.50;;
12493;SDS011;8260;51.422;6.786;2023-05-13T03:37:09;16.02;;;14.40;;
12493;SDS011;8260;51.422;6.786;2023-05-13T03:39:37;15.90;;;14.30;;
12493;SDS011;8260;51.422;6.786;2023-05-13T03:42:07;16.35;;;14.75;;
12493;SDS011;8260;51.422;6.786;2023-05-13T03:44:36;15.77;;;14.35;;
12493;SDS011;8260;51.422;6.786;2023-05-13T03:47:04;16.52;;;14.82;;
12493;SDS011;8260;51.422;6.786;2023-05-13T03:49:33;15.75;;;14.15;;
12493;SDS011;8260;51.422;6.786;2023-05-13T03:52:02;16.65;;;14.95;;
12493;SDS011;8260;51.422;6.786;2023-05-13T03:54:33;17.40;;;14.63;;
12493;SDS011;8260;51.422;6.786;2023-05-13T03:57:01;15.70;;;14.00;;
12493;SDS011;8260;51.422;6.786;2023-05-13T03:59:31;16.63;;;15.02;;
12493;SDS011;8260;51.422;6.786;2023-05-13T04:02:00;15.77;;;14.18;;
12493;SDS011;8260;51.422;6.786;2023-05-13T04:04:28;19.23;;;14.73;;
12493;SDS011;8260;51.422;6.786;2023-05-13T04:06:57;16.80;;;15.10;;
12493;SDS011;8260;51.422;6.786;2023-05-13T04:09:25;18.40;;;15.32;;
12493;SDS011;8260;51.422;6.786;2023-05-13T04:11:54;18.08;;;16.27;;
12493;SDS011;8260;51.422;6.786;2023-05-13T04:14:22;17.27;;;15.57;;
12493;SDS011;8260;51.422;6.786;2023-05-13T04:16:52;15.93;;;14.32;;
12493;SDS011;8260;51.422;6.786;2023-05-13T04:19:21;16.67;;;14.95;;
12493;SDS011;8260;51.422;6.786;2023-05-13T04:21:49;17.42;;;15.32;;
12493;SDS011;8260;51.422;6.786;2023-05-13T04:24:18;16.33;;;14.63;;
12493;SDS011;8260;51.422;6.786;2023-05-13T04:26:46;16.60;;;14.90;;
12493;SDS011;8260;51.422;6.786;2023-05-13T04:29:15;16.63;;;15.02;;
12493;SDS011;8260;51.422;6.786;2023-05-13T04:31:43;16.50;;;14.52;;
12493;SDS011;8260;51.422;6.786;2023-05-13T04:34:13;18.65;;;15.77;;
12493;SDS011;8260;51.422;6.786;2023-05-13T04:36:42;16.88;;;15.05;;
12493;SDS011;8260;51.422;6.786;2023-05-13T04:39:11;16.33;;;14.73;;
12493;SDS011;8260;51.422;6.786;2023-05-13T04:41:40;16.55;;;14.52;;
12493;SDS011;8260;51.422;6.786;2023-05-13T04:44:08;19.05;;;16.13;;
12493;SDS011;8260;51.422;6.786;2023-05-13T04:46:37;17.95;;;16.10;;
12493;SDS011;8260;51.422;6.786;2023-05-13T04:49:05;17.67;;;15.57;;
12493;SDS011;8260;51.422;6.786;2023-05-13T04:51:36;17.48;;;15.77;;
12493;SDS011;8260;51.422;6.786;2023-05-13T04:54:05;17.20;;;15.13;;
12493;SDS011;8260;51.422;6.786;2023-05-13T04:56:33;17.92;;;16.13;;
12493;SDS011;8260;51.422;6.786;2023-05-13T04:59:02;16.55;;;14.70;;
12493;SDS011;8260;51.422;6.786;2023-05-13T05:01:30;17.02;;;15.40;;
12493;SDS011;8260;51.422;6.786;2023-05-13T05:03:59;15.93;;;14.52;;
12493;SDS011;8260;51.422;6.786;2023-05-13T05:06:28;17.42;;;15.82;;
12493;SDS011;8260;51.422;6.786;2023-05-13T05:08:58;16.38;;;14.77;;
12493;SDS011;8260;51.422;6.786;2023-05-13T05:11:26;16.63;;;15.05;;
12493;SDS011;8260;51.422;6.786;2023-05-13T05:13:55;18.23;;;16.40;;
12493;SDS011;8260;51.422;6.786;2023-05-13T05:16:23;18.48;;;16.60;;
12493;SDS011;8260;51.422;6.786;2023-05-13T05:18:52;17.88;;;16.13;;
12493;SDS011;8260;51.422;6.786;2023-05-13T05:21:20;18.42;;;15.20;;
12493;SDS011;8260;51.422;6.786;2023-05-13T05:23:49;18.30;;;16.05;;
12493;SDS011;8260;51.422;6.786;2023-05-13T05:26:22;21.88;;;16.30;;
12493;SDS011;8260;51.422;6.786;2023-05-13T05:28:50;17.98;;;16.08;;
12493;SDS011;8260;51.422;6.786;2023-05-13T05:31:19;17.67;;;15.93;;
12493;SDS011;8260;51.422;6.786;2023-05-13T05:33:47;17.80;;;15.90;;
12493;SDS011;8260;51.422;6.786;2023-05-13T05:36:16;17.45;;;15.63;;
12493;SDS011;8260;51.422;6.786;2023-05-13T05:38:45;17.58;;;15.82;;
12493;SDS011;8260;51.422;6.786;2023-05-13T05:41:13;21.55;;;16.40;;
12493;SDS011;8260;51.422;6.786;2023-05-13T05:43:43;17.58;;;15.82;;
12493;SDS011;8260;51.422;6.786;2023-05-13T05:46:12;19.55;;;16.80;;
12493;SDS011;8260;51.422;6.786;2023-05-13T05:48:40;18.90;;;16.88;;
12493;SDS011;8260;51.422;6.786;2023-05-13T05:51:09;20.80;;;17.77;;
12493;SDS011;8260;51.422;6.786;2023-05-13T05:53:37;19.77;;;17.13;;
12493;SDS011;8260;51.422;6.786;2023-05-13T05:56:07;17.98;;;16.27;;
12493;SDS011;8260;51.422;6.786;2023-05-13T05:58:36;18.52;;;15.90;;
12493;SDS011;8260;51.422;6.786;2023-05-13T06:01:05;16.90;;;15.32;;
12493;SDS011;8260;51.422;6.786;2023-05-13T06:03:34;17.13;;;15.27;;
12493;SDS011;8260;51.422;6.786;2023-05-13T06:06:03;17.70;;;15.73;;
12493;SDS011;8260;51.422;6.786;2023-05-13T06:08:32;19.17;;;15.80;;
12493;SDS011;8260;51.422;6.786;2023-05-13T06:11:00;17.98;;;16.10;;
12493;SDS011;8260;51.422;6.786;2023-05-13T06:13:29;18.45;;;16.13;;
12493;SDS011;8260;51.422;6.786;2023-05-13T06:15:57;17.65;;;15.82;;
12493;SDS011;8260;51.422;6.786;2023-05-13T06:18:27;16.67;;;14.98;;
12493;SDS011;8260;51.422;6.786;2023-05-13T06:20:56;18.02;;;16.23;;
12493;SDS011;8260;51.422;6.786;2023-05-13T06:23:24;20.55;;;16.52;;
12493;SDS011;8260;51.422;6.786;2023-05-13T06:25:53;16.50;;;14.80;;
12493;SDS011;8260;51.422;6.786;2023-05-13T06:28:24;16.73;;;14.88;;
12493;SDS011;8260;51.422;6.786;2023-05-13T06:30:52;16.55;;;14.80;;
12493;SDS011;8260;51.422;6.786;2023-05-13T06:33:21;17.20;;;14.48;;
12493;SDS011;8260;51.422;6.786;2023-05-13T06:35:51;17.10;;;15.13;;
12493;SDS011;8260;51.422;6.786;2023-05-13T06:38:19;17.73;;;14.57;;
12493;SDS011;8260;51.422;6.786;2023-05-13T06:40:48;15.65;;;13.80;;
12493;SDS011;8260;51.422;6.786;2023-05-13T06:43:16;14.63;;;13.18;;
12493;SDS011;8260;51.422;6.786;2023-05-13T06:45:45;16.27;;;13.82;;
12493;SDS011;8260;51.422;6.786;2023-05-13T06:48:14;16.52;;;13.68;;
12493;SDS011;8260;51.422;6.786;2023-05-13T06:50:42;15.40;;;12.63;;
12493;SDS011;8260;51.422;6.786;2023-05-13T06:53:12;13.93;;;12.52;;
12493;SDS011;8260;51.422;6.786;2023-05-13T06:55:44;14.27;;;12.88;;
12493;SDS011;8260;51.422;6.786;2023-05-13T06:58:13;13.75;;;12.35;;
12493;SDS011;8260;51.422;6.786;2023-05-13T07:00:41;12.32;;;11.10;;
12493;SDS011;8260;51.422;6.786;2023-05-13T07:03:12;14.02;;;12.02;;
12493;SDS011;8260;51.422;6.786;2023-05-13T07:05:40;13.07;;;11.75;;
12493;SDS011;8260;51.422;6.786;2023-05-13T07:08:09;13.82;;;12.35;;
12493;SDS011;8260;51.422;6.786;2023-05-13T07:10:44;13.40;;;12.10;;
12493;SDS011;8260;51.422;6.786;2023-05-13T07:13:12;13.45;;;10.95;;
12493;SDS011;8260;51.422;6.786;2023-05-13T07:15:42;13.85;;;11.57;;
12493;SDS011;8260;51.422;6.786;2023-05-13T07:18:12;11.82;;;10.70;;
12493;SDS011;8260;51.422;6.786;2023-05-13T07:20:41;12.80;;;10.50;;
12493;SDS011;8260;51.422;6.786;2023-05-13T07:23:09;10.98;;;9.98;;
12493;SDS011;8260;51.422;6.786;2023-05-13T07:25:38;16.42;;;11.15;;
12493;SDS011;8260;51.422;6.786;2023-05-13T07:28:08;10.55;;;9.45;;
12493;SDS011;8260;51.422;6.786;2023-05-13T07:30:38;11.40;;;10.23;;
12493;SDS011;8260;51.422;6.786;2023-05-13T07:33:07;10.88;;;9.77;;
12493;SDS011;8260;51.422;6.786;2023-05-13T07:35:36;11.90;;;9.38;;
12493;SDS011;8260;51.422;6.786;2023-05-13T07:38:05;10.57;;;9.63;;
12493;SDS011;8260;51.422;6.786;2023-05-13T07:40:35;11.50;;;10.35;;
12493;SDS011;8260;51.422;6.786;2023-05-13T07:43:04;11.15;;;10.07;;
12493;SDS011;8260;51.422;6.786;2023-05-13T07:45:34;10.70;;;9.65;;
12493;SDS011;8260;51.422;6.786;2023-05-13T07:48:04;10.73;;;9.77;;
12493;SDS011;8260;51.422;6.786;2023-05-13T07:50:35;11.57;;;10.27;;
12493;SDS011;8260;51.422;6.786;2023-05-13T07:53:04;11.55;;;9.43;;
12493;SDS011;8260;51.422;6.786;2023-05-13T07:55:32;11.43;;;9.55;;
12493;SDS011;8260;51.422;6.786;2023-05-13T07:58:01;9.88;;;8.98;;
12493;SDS011;8260;51.422;6.786;2023-05-13T08:00:29;9.82;;;8.82;;
12493;SDS011;8260;51.422;6.786;2023-05-13T08:02:59;12.02;;;9.00;;
12493;SDS011;8260;51.422;6.786;2023-05-13T08:05:28;9.75;;;8.85;;
12493;SDS011;8260;51.422;6.786;2023-05-13T08:07:56;9.70;;;8.77;;
12493;SDS011;8260;51.422;6.786;2023-05-13T08:10:25;10.77;;;9.57;;
12493;SDS011;8260;51.422;6.786;2023-05-13T08:12:54;10.15;;;8.48;;
12493;SDS011;8260;51.422;6.786;2023-05-13T08:15:24;10.27;;;8.10;;
12493;SDS011;8260;51.422;6.786;2023-05-13T08:17:53;8.02;;;7.18;;
12493;SDS011;8260;51.422;6.786;2023-05-13T08:20:23;9.23;;;6.75;;
12493;SDS011;8260;51.422;6.786;2023-05-13T08:22:55;7.40;;;6.45;;
12493;SDS011;8260;51.422;6.786;2023-05-13T08:25:24;9.15;;;6.57;;
12493;SDS011;8260;51.422;6.786;2023-05-13T08:27:56;6.90;;;6.30;;
12493;SDS011;8260;51.422;6.786;2023-05-13T08:30:25;6.68;;;6.07;;
12493;SDS011;8260;51.422;6.786;2023-05-13T08:32:53;7.35;;;6.20;;
12493;SDS011;8260;51.422;6.786;2023-05-13T08:35:23;6.47;;;5.95;;
12493;SDS011;8260;51.422;6.786;2023-05-13T08:37:52;7.10;;;6.20;;
12493;SDS011;8260;51.422;6.786;2023-05-13T08:40:21;7.07;;;6.30;;
12493;SDS011;8260;51.422;6.786;2023-05-13T08:42:49;7.10;;;6.07;;
12493;SDS011;8260;51.422;6.786;2023-05-13T08:45:19;8.32;;;6.10;;
12493;SDS011;8260;51.422;6.786;2023-05-13T08:47:49;6.97;;;6.00;;
12493;SDS011;8260;51.422;6.786;2023-05-13T08:50:19;7.57;;;6.13;;
12493;SDS011;8260;51.422;6.786;2023-05-13T08:52:50;6.57;;;5.90;;
12493;SDS011;8260;51.422;6.786;2023-05-13T08:55:19;6.90;;;6.05;;
12493;SDS011;8260;51.422;6.786;2023-05-13T08:57:49;6.35;;;5.75;;
12493;SDS011;8260;51.422;6.786;2023-05-13T09:00:18;7.22;;;5.57;;
12493;SDS011;8260;51.422;6.786;2023-05-13T09:02:48;9.30;;;5.88;;
12493;SDS011;8260;51.422;6.786;2023-05-13T09:05:16;9.10;;;6.22;;
12493;SDS011;8260;51.422;6.786;2023-05-13T09:07:45;7.60;;;5.63;;
12493;SDS011;8260;51.422;6.786;2023-05-13T09:10:15;5.70;;;5.13;;
12493;SDS011;8260;51.422;6.786;2023-05-13T09:12:45;6.85;;;5.30;;
12493;SDS011;8260;51.422;6.786;2023-05-13T09:15:15;5.80;;;5.20;;
12493;SDS011;8260;51.422;6.786;2023-05-13T09:17:46;7.50;;;5.43;;
12493;SDS011;8260;51.422;6.786;2023-05-13T09:20:16;10.00;;;5.78;;
12493;SDS011;8260;51.422;6.786;2023-05-13T09:22:45;5.95;;;5.28;;
12493;SDS011;8260;51.422;6.786;2023-05-13T09:25:14;5.35;;;4.43;;
12493;SDS011;8260;51.422;6.786;2023-05-13T09:27:45;5.35;;;4.90;;
12493;SDS011;8260;51.422;6.786;2023-05-13T09:30:14;9.55;;;4.93;;
12493;SDS011;8260;51.422;6.786;2023-05-13T09:32:42;6.95;;;5.10;;
12493;SDS011;8260;51.422;6.786;2023-05-13T09:35:11;5.97;;;4.70;;
12493;SDS011;8260;51.422;6.786;2023-05-13T09:37:44;5.78;;;5.18;;
12493;SDS011;8260;51.422;6.786;2023-05-13T09:40:13;6.25;;;5.65;;
12493;SDS011;8260;51.422;6.786;2023-05-13T09:42:42;5.80;;;5.03;;
12493;SDS011;8260;51.422;6.786;2023-05-13T09:45:13;7.85;;;5.28;;
12493;SDS011;8260;51.422;6.786;2023-05-13T09:47:42;5.78;;;5.22;;
12493;SDS011;8260;51.422;6.786;2023-05-13T09:50:11;5.30;;;4.82;;
12493;SDS011;8260;51.422;6.786;2023-05-13T09:52:39;6.82;;;4.20;;
12493;SDS011;8260;51.422;6.786;2023-05-13T09:55:08;5.68;;;4.38;;
12493;SDS011;8260;51.422;6.786;2023-05-13T09:57:37;4.80;;;4.30;;
12493;SDS011;8260;51.422;6.786;2023-05-13T10:00:07;5.18;;;4.60;;
12493;SDS011;8260;51.422;6.786;2023-05-13T10:02:55;7.07;;;4.25;;
12493;SDS011;8260;51.422;6.786;2023-05-13T10:05:24;4.95;;;4.40;;
12493;SDS011;8260;51.422;6.786;2023-05-13T10:07:53;7.97;;;4.57;;
12493;SDS011;8260;51.422;6.786;2023-05-13T10:10:22;6.57;;;4.68;;
12493;SDS011;8260;51.422;6.786;2023-05-13T10:12:51;5.60;;;3.80;;
12493;SDS011;8260;51.422;6.786;2023-05-13T10:15:19;4.65;;;4.25;;
12493;SDS011;8260;51.422;6.786;2023-05-13T10:17:48;5.18;;;3.85;;
12493;SDS011;8260;51.422;6.786;2023-05-13T10:20:19;4.72;;;4.13;;
12493;SDS011;8260;51.422;6.786;2023-05-13T10:22:48;5.95;;;4.30;;
12493;SDS011;8260;51.422;6.786;2023-05-13T10:25:17;5.53;;;3.88;;
12493;SDS011;8260;51.422;6.786;2023-05-13T10:27:46;5.10;;;4.00;;
12493;SDS011;8260;51.422;6.786;2023-05-13T10:30:15;8.43;;;4.30;;
12493;SDS011;8260;51.422;6.786;2023-05-13T10:32:45;5.28;;;4.25;;
12493;SDS011;8260;51.422;6.786;2023-05-13T10:35:14;4.60;;;4.03;;
12493;SDS011;8260;51.422;6.786;2023-05-13T10:37:53;4.90;;;3.80;;
12493;SDS011;8260;51.422;6.786;2023-05-13T10:40:30;7.85;;;4.03;;
12493;SDS011;8260;51.422;6.786;2023-05-13T10:43:08;5.70;;;3.65;;
12493;SDS011;8260;51.422;6.786;2023-05-13T10:45:37;5.00;;;4.20;;
12493;SDS011;8260;51.422;6.786;2023-05-13T10:48:06;5.25;;;4.30;;
12493;SDS011;8260;51.422;6.786;2023-05-13T10:50:35;4.90;;;3.92;;
12493;SDS011;8260;51.422;6.786;2023-05-13T10:53:09;5.45;;;4.15;;
12493;SDS011;8260;51.422;6.786;2023-05-13T10:55:44;5.30;;;4.07;;
12493;SDS011;8260;51.422;6.786;2023-05-13T10:58:13;5.75;;;3.78;;
12493;SDS011;8260;51.422;6.786;2023-05-13T11:00:43;4.00;;;3.70;;
12493;SDS011;8260;51.422;6.786;2023-05-13T11:03:13;7.13;;;3.80;;
12493;SDS011;8260;51.422;6.786;2023-05-13T11:05:45;4.30;;;3.88;;
12493;SDS011;8260;51.422;6.786;2023-05-13T11:08:36;4.63;;;4.13;;
12493;SDS011;8260;51.422;6.786;2023-05-13T11:13:55;8.45;;;4.10;;
12493;SDS011;8260;51.422;6.786;2023-05-13T11:16:29;5.93;;;4.05;;
12493;SDS011;8260;51.422;6.786;2023-05-13T11:18:58;6.20;;;4.05;;
12493;SDS011;8260;51.422;6.786;2023-05-13T11:21:29;7.22;;;4.43;;
12493;SDS011;8260;51.422;6.786;2023-05-13T11:24:01;5.47;;;3.72;;
12493;SDS011;8260;51.422;6.786;2023-05-13T11:26:42;5.13;;;4.22;;
12493;SDS011;8260;51.422;6.786;2023-05-13T11:29:11;5.90;;;4.20;;
12493;SDS011;8260;51.422;6.786;2023-05-13T11:31:43;4.25;;;3.85;;
12493;SDS011;8260;51.422;6.786;2023-05-13T11:34:13;5.45;;;3.95;;
12493;SDS011;8260;51.422;6.786;2023-05-13T11:36:43;4.88;;;4.25;;
12493;SDS011;8260;51.422;6.786;2023-05-13T11:39:14;6.70;;;4.05;;
12493;SDS011;8260;51.422;6.786;2023-05-13T11:41:44;6.00;;;3.97;;
12493;SDS011;8260;51.422;6.786;2023-05-13T11:44:13;4.95;;;4.22;;
12493;SDS011;8260;51.422;6.786;2023-05-13T11:46:48;4.70;;;4.10;;
12493;SDS011;8260;51.422;6.786;2023-05-13T11:49:28;5.28;;;4.03;;
12493;SDS011;8260;51.422;6.786;2023-05-13T11:51:57;4.55;;;3.80;;
12493;SDS011;8260;51.422;6.786;2023-05-13T11:54:27;3.72;;;3.42;;
12493;SDS011;8260;51.422;6.786;2023-05-13T11:56:55;6.40;;;4.07;;
12493;SDS011;8260;51.422;6.786;2023-05-13T11:59:24;4.13;;;3.70;;
12493;SDS011;8260;51.422;6.786;2023-05-13T12:02:04;4.18;;;3.80;;
12493;SDS011;8260;51.422;6.786;2023-05-13T12:04:32;6.07;;;4.10;;
12493;SDS011;8260;51.422;6.786;2023-05-13T12:07:01;6.85;;;3.92;;
12493;SDS011;8260;51.422;6.786;2023-05-13T12:09:30;5.82;;;4.18;;
12493;SDS011;8260;51.422;6.786;2023-05-13T12:11:59;7.55;;;3.88;;
12493;SDS011;8260;51.422;6.786;2023-05-13T12:14:28;4.43;;;4.00;;
12493;SDS011;8260;51.422;6.786;2023-05-13T12:16:58;4.10;;;3.70;;
12493;SDS011;8260;51.422;6.786;2023-05-13T12:19:27;6.65;;;3.92;;
12493;SDS011;8260;51.422;6.786;2023-05-13T12:21:57;7.10;;;4.22;;
12493;SDS011;8260;51.422;6.786;2023-05-13T12:24:27;4.65;;;3.58;;
12493;SDS011;8260;51.422;6.786;2023-05-13T12:27:04;4.80;;;3.63;;
12493;SDS011;8260;51.422;6.786;2023-05-13T12:29:40;5.43;;;4.38;;
12493;SDS011;8260;51.422;6.786;2023-05-13T12:32:09;4.72;;;4.13;;
12493;SDS011;8260;51.422;6.786;2023-05-13T12:34:38;4.05;;;3.45;;
12493;SDS011;8260;51.422;6.786;2023-05-13T12:37:09;4.22;;;3.83;;
12493;SDS011;8260;51.422;6.786;2023-05-13T12:39:38;5.18;;;3.80;;
12493;SDS011;8260;51.422;6.786;2023-05-13T12:42:15;7.60;;;4.47;;
12493;SDS011;8260;51.422;6.786;2023-05-13T12:44:44;6.10;;;4.07;;
12493;SDS011;8260;51.422;6.786;2023-05-13T12:47:13;6.65;;;4.53;;
12493;SDS011;8260;51.422;6.786;2023-05-13T12:49:51;5.97;;;4.05;;
12493;SDS011;8260;51.422;6.786;2023-05-13T12:52:20;5.30;;;4.22;;
12493;SDS011;8260;51.422;6.786;2023-05-13T12:54:49;6.00;;;4.10;;
12493;SDS011;8260;51.422;6.786;2023-05-13T12:57:19;6.38;;;4.40;;
12493;SDS011;8260;51.422;6.786;2023-05-13T12:59:47;5.75;;;4.10;;
12493;SDS011;8260;51.422;6.786;2023-05-13T13:02:16;4.35;;;3.95;;
12493;SDS011;8260;51.422;6.786;2023-05-13T13:04:44;6.63;;;4.15;;
12493;SDS011;8260;51.422;6.786;2023-05-13T13:07:13;4.57;;;3.92;;
12493;SDS011;8260;51.422;6.786;2023-05-13T13:09:41;6.95;;;4.05;;
12493;SDS011;8260;51.422;6.786;2023-05-13T13:12:10;5.47;;;3.70;;
12493;SDS011;8260;51.422;6.786;2023-05-13T13:14:40;6.63;;;4.20;;
12493;SDS011;8260;51.422;6.786;2023-05-13T13:17:08;4.28;;;3.97;;
12493;SDS011;8260;51.422;6.786;2023-05-13T13:19:37;5.18;;;3.90;;
12493;SDS011;8260;51.422;6.786;2023-05-13T13:22:05;6.40;;;4.22;;
12493;SDS011;8260;51.422;6.786;2023-05-13T13:24:33;5.95;;;4.07;;
12493;SDS011;8260;51.422;6.786;2023-05-13T13:27:02;4.32;;;3.90;;
12493;SDS011;8260;51.422;6.786;2023-05-13T13:29:31;6.50;;;4.32;;
12493;SDS011;8260;51.422;6.786;2023-05-13T13:32:00;5.20;;;4.10;;
12493;SDS011;8260;51.422;6.786;2023-05-13T13:34:29;5.97;;;3.90;;
12493;SDS011;8260;51.422;6.786;2023-05-13T13:36:57;4.20;;;3.83;;
12493;SDS011;8260;51.422;6.786;2023-05-13T13:39:26;6.15;;;4.00;;
12493;SDS011;8260;51.422;6.786;2023-05-13T13:41:54;4.47;;;4.05;;
12493;SDS011;8260;51.422;6.786;2023-05-13T13:44:23;4.25;;;3.67;;
12493;SDS011;8260;51.422;6.786;2023-05-13T13:46:53;5.95;;;3.80;;
12493;SDS011;8260;51.422;6.786;2023-05-13T13:49:23;6.35;;;4.00;;
12493;SDS011;8260;51.422;6.786;2023-05-13T13:51:52;7.53;;;4.07;;
12493;SDS011;8260;51.422;6.786;2023-05-13T13:54:21;5.68;;;4.35;;
12493;SDS011;8260;51.422;6.786;2023-05-13T13:56:49;4.88;;;3.92;;
12493;SDS011;8260;51.422;6.786;2023-05-13T13:59:17;4.30;;;3.90;;
12493;SDS011;8260;51.422;6.786;2023-05-13T14:01:46;5.55;;;4.22;;
12493;SDS011;8260;51.422;6.786;2023-05-13T14:04:15;8.00;;;4.70;;
12493;SDS011;8260;51.422;6.786;2023-05-13T14:06:46;7.07;;;4.22;;
12493;SDS011;8260;51.422;6.786;2023-05-13T14:09:15;5.72;;;4.03;;
12493;SDS011;8260;51.422;6.786;2023-05-13T14:11:44;6.07;;;4.07;;
12493;SDS011;8260;51.422;6.786;2023-05-13T14:14:12;4.50;;;3.72;;
12493;SDS011;8260;51.422;6.786;2023-05-13T14:16:41;4.72;;;4.18;;
12493;SDS011;8260;51.422;6.786;2023-05-13T14:19:09;5.53;;;3.95;;
12493;SDS011;8260;51.422;6.786;2023-05-13T14:21:38;4.50;;;3.65;;
12493;SDS011;8260;51.422;6.786;2023-05-13T14:24:08;4.65;;;3.65;;
12493;SDS011;8260;51.422;6.786;2023-05-13T14:26:37;3.90;;;3.60;;
12493;SDS011;8260;51.422;6.786;2023-05-13T14:29:06;5.22;;;4.28;;
12493;SDS011;8260;51.422;6.786;2023-05-13T14:31:34;5.88;;;4.57;;
12493;SDS011;8260;51.422;6.786;2023-05-13T14:34:03;7.70;;;4.30;;
12493;SDS011;8260;51.422;6.786;2023-05-13T14:36:33;4.32;;;4.00;;
12493;SDS011;8260;51.422;6.786;2023-05-13T14:39:01;6.63;;;4.45;;
12493;SDS011;8260;51.422;6.786;2023-05-13T14:41:32;7.05;;;4.45;;
12493;SDS011;8260;51.422;6.786;2023-05-13T14:44:00;4.93;;;4.43;;
12493;SDS011;8260;51.422;6.786;2023-05-13T14:46:29;5.88;;;3.92;;
12493;SDS011;8260;51.422;6.786;2023-05-13T14:48:59;5.53;;;3.90;;
12493;SDS011;8260;51.422;6.786;2023-05-13T14:51:28;5.85;;;4.35;;
12493;SDS011;8260;51.422;6.786;2023-05-13T14:53:56;5.65;;;4.40;;
12493;SDS011;8260;51.422;6.786;2023-05-13T14:56:25;7.30;;;5.22;;
12493;SDS011;8260;51.422;6.786;2023-05-13T14:58:55;5.18;;;4.63;;
12493;SDS011;8260;51.422;6.786;2023-05-13T15:01:23;5.25;;;4.03;;
12493;SDS011;8260;51.422;6.786;2023-05-13T15:03:52;5.40;;;4.20;;